Weather observations for the past three days for
Devils Lake, Devils Lake Municipal Airport
Imperial (Metric)
Date Time (cdt) Wind (mph) Vis. (mi.) Weather Sky Cond. Temperature (ºF) Relative Humidity Wind Chill (°F) Heat Index (°F) Pressure Precipitation (in)
Air Dwpt 6 hour altimeter (in) sea level (mb) 1 hr 3 hr 6 hr
Max. Min.
03 00:56 E 8 10.00 A Few Clouds FEW075 64 55 75.9 64 73% 29.89 1012.2
02 23:56 E 10 10.00 Partly Cloudy SCT085 64.9 55.9 73% 29.89 1012.4
02 22:56 E 9 10.00 A Few Clouds FEW090 64.9 55.9 73% 29.9 1012.5
02 21:56 E 9 10.00 Fair CLR 66.9 57 71% 29.91 1013.0
02 20:56 E 10 10.00 Fair CLR 69.1 57 66% 29.91 1012.9
02 19:56 E 10 10.00 Fair CLR 72 57 59% 29.89 1012.5
02 18:56 E 13 10.00 Fair CLR 75.9 55.9 79 73.9 50% 78 29.89 1012.4
02 17:56 S 10 10.00 Fair CLR 78.1 55 45% 79 29.9 1012.5
02 16:56 SE 8 10.00 Fair CLR 78.1 55.9 47% 79 29.9 1012.6
02 15:56 SE 7 10.00 Fair CLR 78.1 57 48% 79 29.92 1013.1
02 14:56 S 7 10.00 Fair CLR 77 57 50% 79 29.93 1013.6
02 13:56 S 9 10.00 Fair CLR 75.9 57 52% 78 29.94 1014.1
02 12:56 SE 8 10.00 Fair CLR 73.9 57.9 73.9 54 57% 29.96 1014.5
02 11:56 SE 9 10.00 Fair CLR 72 57.9 61% 29.97 1015.1
02 10:56 SE 8 10.00 Fair CLR 71.1 57.9 63% 29.97 1015.0
02 09:56 SE 8 10.00 Fair CLR 68 57.9 70% 29.97 1015.0
02 08:56 SE 5 10.00 Fair CLR 64 60.1 87% 29.98 1015.3
02 07:56 Calm 10.00 Fair CLR 57 57 100% 29.97 1015.4
02 06:56 E 3 9.00 Fair CLR 55 55 61 54 100% 29.96 1015.0
02 05:56 SE 3 10.00 Fair CLR 57 57 100% 29.96 1014.9
02 04:56 S 5 10.00 Fair CLR 57.9 57 97% 29.96 1014.7
02 03:56 SE 6 10.00 Fair CLR 59 57 93% 29.96 1014.7
02 02:56 E 3 10.00 Fair CLR 55.9 55 97% 29.96 1014.6
02 01:56 Calm 10.00 Fair CLR 57.9 57 97% 29.96 1014.7
02 00:56 Calm 10.00 Fair CLR 61 57.9 72 59 90% 29.96 1014.5
01 23:56 Calm 10.00 Fair CLR 60.1 57.9 93% 29.96 1014.7
01 22:56 Calm 10.00 Fair CLR 63 57.9 84% 29.95 1014.5
01 21:56 Calm 10.00 Fair CLR 66 57.9 75% 29.96 1014.5
01 20:56 NW 5 10.00 Fair CLR 66.9 59 76% 29.94 1014.2
01 19:56 NW 3 10.00 Fair CLR 70 57 64% 29.94 1014.1
01 18:56 NW 5 10.00 Fair CLR 72 57 77 72 59% 29.94 1014.1
01 17:56 NW 8 10.00 Fair CLR 75 54 48% 78 29.95 1014.2
01 16:56 NW 10 10.00 Fair CLR 75 54 48% 78 29.95 1014.4
01 15:56 NW 15 G 20 10.00 Fair CLR 75.9 53.1 45% 78 29.94 1013.9
01 14:56 W 14 10.00 Fair CLR 75.9 53.1 45% 78 29.95 1014.1
01 13:56 W 15 10.00 Fair CLR 73.9 53.1 48% 29.95 1014.5
01 12:56 W 17 10.00 Fair CLR 73.9 53.1 73.9 60.1 48% 29.96 1014.7
01 11:56 W 15 10.00 Fair CLR 73 54 51% 29.97 1014.9
01 10:56 W 14 10.00 Fair CLR 70 55.9 61% 29.96 1014.8
01 09:56 W 14 10.00 Fair CLR 66.9 55 66% 29.97 1015.1
01 08:56 NW 15 10.00 Fair CLR 64 54 70% 29.95 1014.5
01 07:56 W 14 10.00 Fair CLR 62.1 55 78% 29.97 1015.0
01 06:56 W 9 10.00 Fair CLR 60.1 55.9 64 59 86% 29.94 1014.0
01 05:56 W 13 10.00 Fair CLR 60.1 55.9 86% 29.92 1013.3
01 04:56 W 12 10.00 Fair CLR 61 55.9 84% 29.92 1013.1
01 03:56 W 9 10.00 Fair CLR 62.1 55.9 80% 29.91 1012.9
01 02:56 SW 13 10.00 Fair CLR 63 55.9 78% 29.9 1012.5
01 01:56 W 10 10.00 Fair CLR 62.1 55 78% 29.89 1012.1
01 00:56 W 12 10.00 Fair CLR 63 55 78.1 63 76% 29.88 1012.0
31 23:56 W 12 10.00 Fair CLR 64.9 55 70% 29.88 1011.9
31 22:56 W 14 10.00 Fair CLR 64.9 55.9 73% 29.87 1011.6
31 21:56 SW 7 10.00 Fair CLR 64.9 55.9 73% 29.86 1011.4
31 20:56 W 12 10.00 Fair CLR 68 54 61% 29.84 1010.5
31 19:56 NW 21 G 25 10.00 Fair and Breezy CLR 72 55 55% 29.8 1009.4
31 18:56 W 24 G 31 10.00 A Few Clouds and Breezy FEW085 77 51.1 80.1 75 40% 78 29.77 1008.0
31 17:56 W 28 G 37 10.00 A Few Clouds and Windy FEW080 80.1 48.9 34% 79 29.76 1007.6
31 16:56 SW 24 G 37 10.00 A Few Clouds and Breezy FEW080 80.1 50 35% 80 29.75 1007.5
31 15:56 W 33 G 39 10.00 Fair and Windy CLR 79 48.9 35% 79 29.75 1007.4
31 14:56 SW 28 G 37 10.00 Fair and Windy CLR 79 48.9 35% 79 29.75 1007.3
31 13:56 SW 29 G 38 10.00 Fair and Windy CLR 77 48 36% 78 29.77 1007.9
31 12:56 SW 29 G 36 10.00 Fair and Windy CLR 75 48.9 75 59 40% 77 29.79 1008.6
31 11:56 SW 22 G 30 10.00 Fair and Breezy CLR 73 53.1 50% 29.82 1009.7
31 10:56 SW 23 G 28 10.00 Fair and Breezy CLR 70 55 59% 29.83 1010.2
31 09:56 SW 20 G 25 10.00 Fair CLR 64.9 55 70% 29.84 1010.7
31 08:56 SW 17 G 22 10.00 Fair CLR 63 55 76% 29.84 1010.7
31 07:56 SW 10 10.00 Fair CLR 60.1 57 90% 29.82 1009.9
31 06:56 SW 12 10.00 Fair CLR 60.1 57 66 59 90% 29.81 1009.4
31 05:56 W 10 10.00 Fair CLR 60.1 57.9 93% 29.8 1009.1
31 04:56 W 10 10.00 Fair CLR 60.1 57.9 93% 29.79 1009.0
31 03:56 W 13 10.00 Fair CLR 61 59 93% 29.78 1008.4
31 02:56 W 13 10.00 Partly Cloudy SCT010 63 63 100% 29.77 1008.0
31 01:56 W 14 10.00 Overcast SCT010 OVC020 64.9 64.9 100% 29.76 1007.7
Date Time (cdt) Wind (mph) Vis. (mi.) Weather Sky Cond. Air Dwpt Max. Min. Relative Humidity Wind Chill (°F) Heat Index (°F) altimeter (in) sea level (mb) 1 hr 3 hr 6 hr
6 hour
Temperature (ºF) Pressure Precipitation (in)